Time;durP1;ratioP1;P1;durP2;ratioP2;P2;SDS_P1;SDS_P2;PMS_P1;PMS_P2;Temp;Humidity;BMP_temperature;BMP_pressure;BME280_temperature;BME280_humidity;BME280_pressure;Samples;Min_cycle;Max_cycle;Signal;HPM_P1;HPM_P2
2022/09/20 04:02:23;;;;;;;4.30;2.43;;;11.60;99.90;;;;;;5255966;23;20489;-63
2022/09/20 04:04:55;;;;;;;3.60;2.47;;;11.60;99.90;;;;;;4974893;28;20434;-66
2022/09/20 04:07:31;;;;;;;2.83;2.33;;;11.60;99.90;;;;;;4975138;28;20435;-65
2022/09/20 04:10:16;;;;;;;7.90;3.53;;;11.60;99.90;;;;;;4975228;28;20849;-65
2022/09/20 04:12:57;;;;;;;4.87;2.37;;;11.60;99.90;;;;;;4956183;29;20443;-65
2022/09/20 04:15:32;;;;;;;6.73;2.50;;;11.60;99.90;;;;;;4955754;29;20474;-65
2022/09/20 04:18:08;;;;;;;2.20;2.00;;;11.60;99.90;;;;;;4955759;29;20443;-64
2022/09/20 04:20:43;;;;;;;6.47;2.43;;;11.50;99.90;;;;;;4958423;29;20479;-68
2022/09/20 04:23:20;;;;;;;4.93;2.40;;;11.60;99.90;;;;;;4958797;29;20928;-68
2022/09/20 04:25:49;;;;;;;4.23;2.50;;;11.50;99.90;;;;;;4958993;29;20506;-65
2022/09/20 04:28:22;;;;;;;4.53;2.33;;;11.50;99.90;;;;;;4958792;29;20455;-65
2022/09/20 04:30:55;;;;;;;3.20;2.27;;;11.50;99.90;;;;;;4958731;29;20539;-64
2022/09/20 04:33:28;;;;;;;9.30;3.80;;;11.50;99.90;;;;;;4958693;29;20527;-65
2022/09/20 04:39:00;;;;;;;6.33;2.70;;;11.40;99.90;;;;;;4958923;29;20536;-64
2022/09/20 04:42:07;;;;;;;5.73;3.00;;;11.40;99.90;;;;;;4959184;29;20567;-64
2022/09/20 04:45:11;;;;;;;7.50;3.20;;;11.40;99.90;;;;;;4958732;29;20467;-65
2022/09/20 04:48:07;;;;;;;4.40;2.50;;;11.30;99.90;;;;;;4958642;29;20539;-66
2022/09/20 04:51:05;;;;;;;3.03;2.57;;;11.40;99.90;;;;;;4958369;29;20484;-64
2022/09/20 04:53:57;;;;;;;5.40;3.13;;;11.30;99.90;;;;;;4958457;29;20443;-64
2022/09/20 04:56:37;;;;;;;5.70;3.63;;;11.30;99.90;;;;;;4958345;29;20551;-65
2022/09/20 04:59:06;;;;;;;4.73;2.70;;;11.30;99.90;;;;;;4958970;29;20440;-64
2022/09/20 05:02:19;;;;;;;6.63;3.17;;;11.30;99.90;;;;;;4958479;29;20483;-64
2022/09/20 05:05:25;;;;;;;8.97;3.47;;;11.20;99.90;;;;;;4958328;29;20459;-66
2022/09/20 05:08:35;;;;;;;4.17;2.73;;;11.20;99.90;;;;;;4957869;29;20446;-66
2022/09/20 05:11:55;;;;;;;5.97;2.93;;;11.20;99.90;;;;;;4957946;29;20475;-65
2022/09/20 05:14:47;;;;;;;4.97;2.60;;;11.10;99.90;;;;;;4880592;29;20471;-65
2022/09/20 05:17:29;;;;;;;6.10;3.20;;;11.10;99.90;;;;;;4953026;29;20487;-66
2022/09/20 05:20:44;;;;;;;5.37;2.93;;;11.00;99.90;;;;;;4957964;29;20444;-66
2022/09/20 05:23:33;;;;;;;3.77;2.70;;;11.00;99.90;;;;;;4958169;29;20508;-66
2022/09/20 05:26:14;;;;;;;4.10;2.40;;;10.90;99.90;;;;;;4958196;29;20436;-66
2022/09/20 05:28:52;;;;;;;7.20;2.67;;;10.90;99.90;;;;;;4957993;29;20462;-66
2022/09/20 05:31:29;;;;;;;6.70;2.90;;;10.90;99.90;;;;;;4957786;28;20486;-65
2022/09/20 05:34:04;;;;;;;5.60;3.30;;;10.90;99.90;;;;;;4957334;29;20879;-65
2022/09/20 05:36:41;;;;;;;5.57;2.70;;;10.90;99.90;;;;;;4957276;29;20974;-65
2022/09/20 05:39:23;;;;;;;5.70;2.37;;;10.90;99.90;;;;;;4957699;29;20443;-65
2022/09/20 05:41:58;;;;;;;5.77;2.93;;;10.90;99.90;;;;;;4957466;29;20483;-65
2022/09/20 05:44:31;;;;;;;6.60;2.87;;;10.90;99.90;;;;;;4957072;29;20543;-66
2022/09/20 05:47:08;;;;;;;6.97;3.43;;;10.90;99.90;;;;;;4957411;29;20447;-65
2022/09/20 05:49:45;;;;;;;6.53;3.00;;;10.90;99.90;;;;;;4957078;29;20494;-66
2022/09/20 05:52:29;;;;;;;5.47;2.57;;;11.00;99.90;;;;;;4957173;29;20482;-65
2022/09/20 05:55:20;;;;;;;5.00;3.00;;;11.00;99.90;;;;;;4957043;29;20490;-65
2022/09/20 05:58:05;;;;;;;7.10;3.33;;;11.00;99.90;;;;;;4957070;29;20475;-65
2022/09/20 06:00:37;;;;;;;5.07;3.27;;;11.00;99.90;;;;;;4956769;29;20484;-65
2022/09/20 06:03:11;;;;;;;7.00;3.00;;;11.00;99.90;;;;;;4956997;29;20443;-65
2022/09/20 06:05:46;;;;;;;3.07;2.63;;;11.10;99.90;;;;;;4956862;29;20436;-65
2022/09/20 06:08:42;;;;;;;8.27;2.47;;;11.10;99.90;;;;;;4956957;29;20447;-65
2022/09/20 06:11:37;;;;;;;5.73;2.93;;;11.20;99.90;;;;;;4956720;29;20839;-66
2022/09/20 06:14:18;;;;;;;4.43;2.53;;;11.30;99.90;;;;;;4956636;29;20440;-66
2022/09/20 06:16:53;;;;;;;6.03;3.13;;;11.30;99.90;;;;;;4956735;29;20443;-66
2022/09/20 06:19:30;;;;;;;4.67;3.43;;;11.50;99.90;;;;;;4956276;29;20929;-65
2022/09/20 06:22:03;;;;;;;4.67;3.00;;;11.60;99.90;;;;;;4956647;29;20510;-66
2022/09/20 06:24:36;;;;;;;6.73;3.00;;;11.90;99.90;;;;;;4956456;29;20436;-65
2022/09/20 06:27:10;;;;;;;8.40;3.13;;;12.20;99.90;;;;;;4956376;29;20446;-66
2022/09/20 06:29:42;;;;;;;5.40;4.10;;;12.60;99.90;;;;;;4956431;29;20503;-69
2022/09/20 06:32:09;;;;;;;6.63;3.00;;;13.10;99.90;;;;;;4956548;29;20471;-66
2022/09/20 06:34:36;;;;;;;6.00;2.93;;;13.40;99.90;;;;;;4956640;29;20874;-67
2022/09/20 06:43:09;;;;;;;4.07;2.87;;;15.30;99.90;;;;;;4956016;28;20914;-66
2022/09/20 06:45:36;;;;;;;4.03;2.30;;;15.60;99.90;;;;;;4955853;29;20514;-66
2022/09/20 06:48:03;;;;;;;4.37;2.87;;;15.60;99.90;;;;;;4956543;29;20550;-65
2022/09/20 06:50:29;;;;;;;4.63;3.00;;;15.70;99.90;;;;;;4956289;29;20455;-65
2022/09/20 06:52:56;;;;;;;4.13;2.17;;;15.90;99.90;;;;;;4956127;29;20513;-66
2022/09/20 06:55:28;;;;;;;2.87;2.27;;;16.20;99.90;;;;;;4956174;29;20529;-66
2022/09/20 06:57:55;;;;;;;6.73;2.90;;;16.40;99.90;;;;;;4956419;29;20439;-66
2022/09/20 07:00:23;;;;;;;7.10;2.70;;;16.70;99.90;;;;;;4956170;29;20455;-66
2022/09/20 07:02:50;;;;;;;5.63;2.93;;;16.90;99.90;;;;;;4956056;29;20444;-67
2022/09/20 07:05:20;;;;;;;4.90;2.70;;;17.10;99.90;;;;;;4955673;29;20995;-66
2022/09/20 07:07:47;;;;;;;5.93;3.20;;;17.10;99.90;;;;;;4956872;29;20911;-66
2022/09/20 07:10:14;;;;;;;4.37;3.60;;;17.40;99.90;;;;;;4957862;29;20463;-66
2022/09/20 07:12:41;;;;;;;8.10;2.67;;;17.70;99.90;;;;;;4956478;29;20510;-66
2022/09/20 07:15:09;;;;;;;9.60;3.17;;;18.00;99.90;;;;;;4956204;29;20486;-66
2022/09/20 07:17:37;;;;;;;4.17;2.40;;;18.60;99.90;;;;;;4956175;29;20510;-66
2022/09/20 07:20:04;;;;;;;3.60;2.77;;;19.20;99.90;;;;;;4955834;29;20843;-68
2022/09/20 07:22:31;;;;;;;11.20;2.90;;;19.70;99.90;;;;;;4958068;29;20482;-66
2022/09/20 07:25:01;;;;;;;2.90;2.20;;;20.00;99.90;;;;;;4960204;29;21036;-68
2022/09/20 07:27:28;;;;;;;5.30;3.10;;;20.20;99.90;;;;;;4958648;29;20475;-66
2022/09/20 07:29:54;;;;;;;6.90;2.90;;;20.60;99.90;;;;;;4958737;29;20455;-67
2022/09/20 07:32:21;;;;;;;4.70;2.73;;;20.70;99.90;;;;;;4958229;29;20476;-66
2022/09/20 07:34:49;;;;;;;5.97;2.93;;;21.40;99.90;;;;;;4959559;29;20535;-66
2022/09/20 07:37:17;;;;;;;5.40;3.30;;;21.80;97.40;;;;;;4959586;29;20459;-66
2022/09/20 07:39:44;;;;;;;5.80;2.60;;;22.00;96.50;;;;;;4958444;29;20460;-67
2022/09/20 07:42:11;;;;;;;7.90;3.30;;;22.50;96.60;;;;;;4958019;29;20474;-66
2022/09/20 07:44:41;;;;;;;10.07;2.67;;;23.10;94.40;;;;;;4957818;29;20530;-66
2022/09/20 07:47:09;;;;;;;5.10;2.40;;;23.30;93.20;;;;;;4957334;29;20487;-66
2022/09/20 07:49:36;;;;;;;9.27;2.83;;;23.40;91.50;;;;;;4956833;29;20463;-65
2022/09/20 07:52:04;;;;;;;5.93;4.37;;;23.60;91.00;;;;;;4956112;29;20526;-65
2022/09/20 07:54:31;;;;;;;4.40;2.23;;;23.10;87.20;;;;;;4957063;28;20514;-66
2022/09/20 07:56:58;;;;;;;7.07;2.60;;;23.00;88.30;;;;;;4959675;29;20455;-65
2022/09/20 07:59:24;;;;;;;5.43;2.40;;;22.80;90.40;;;;;;4959627;29;20455;-66
2022/09/20 08:01:51;;;;;;;6.87;2.00;;;22.80;88.10;;;;;;4958792;29;21000;-65
2022/09/20 08:04:18;;;;;;;5.90;2.40;;;22.10;88.20;;;;;;4959230;29;20463;-65
2022/09/20 08:06:45;;;;;;;4.40;2.87;;;22.20;90.10;;;;;;4959023;29;20515;-65
2022/09/20 08:09:14;;;;;;;4.63;2.37;;;22.50;88.10;;;;;;4959027;29;20518;-65
2022/09/20 08:11:42;;;;;;;5.90;3.30;;;22.60;89.40;;;;;;4959232;29;20479;-66
2022/09/20 08:14:13;;;;;;;8.00;3.27;;;22.50;87.20;;;;;;4958694;29;20798;-66
2022/09/20 08:16:41;;;;;;;5.63;2.93;;;22.10;90.00;;;;;;4958943;29;20518;-66
2022/09/20 08:19:10;;;;;;;4.60;2.50;;;21.60;89.50;;;;;;4958728;29;20486;-65
2022/09/20 08:21:38;;;;;;;4.80;2.47;;;21.20;90.70;;;;;;4958759;29;20485;-66
2022/09/20 08:24:05;;;;;;;5.33;2.10;;;20.70;90.20;;;;;;4958801;29;20455;-66
2022/09/20 08:26:35;;;;;;;8.10;2.20;;;20.70;89.40;;;;;;4958841;29;20506;-66
2022/09/20 08:29:01;;;;;;;6.43;2.60;;;20.70;89.20;;;;;;4958770;29;20517;-66
2022/09/20 08:31:33;;;;;;;6.63;2.43;;;20.80;90.70;;;;;;4958531;29;20483;-66
2022/09/20 08:34:02;;;;;;;4.40;2.23;;;21.10;90.50;;;;;;4958640;29;20842;-66
2022/09/20 08:36:30;;;;;;;8.30;2.70;;;21.20;88.90;;;;;;4958221;29;20998;-66
2022/09/20 08:38:57;;;;;;;9.60;2.43;;;20.80;87.10;;;;;;4958547;29;20459;-66
2022/09/20 08:41:28;;;;;;;5.50;2.17;;;20.10;87.60;;;;;;4958382;29;20530;-65
2022/09/20 08:43:58;;;;;;;6.43;2.40;;;19.40;90.40;;;;;;4958407;29;20494;-66
2022/09/20 08:46:30;;;;;;;6.97;2.00;;;19.10;92.00;;;;;;4958525;29;20456;-66
2022/09/20 08:48:58;;;;;;;5.10;2.40;;;18.70;92.90;;;;;;4958396;29;20466;-65
2022/09/20 08:51:29;;;;;;;5.60;2.17;;;18.30;92.90;;;;;;4958198;29;20479;-65
2022/09/20 08:53:57;;;;;;;5.80;2.13;;;17.90;94.40;;;;;;4958197;29;20869;-65
2022/09/20 08:56:28;;;;;;;4.50;1.93;;;17.30;94.10;;;;;;4958156;29;20991;-65
2022/09/20 08:58:59;;;;;;;9.07;2.60;;;17.50;96.20;;;;;;4958003;29;20439;-66
2022/09/20 09:01:30;;;;;;;7.47;1.60;;;17.90;94.70;;;;;;4958043;29;20546;-66
2022/09/20 09:04:01;;;;;;;5.53;1.63;;;17.90;91.90;;;;;;4958645;29;20451;-65
2022/09/20 09:06:28;;;;;;;4.00;2.10;;;17.70;92.90;;;;;;4958281;28;20436;-66
2022/09/20 09:08:59;;;;;;;6.63;1.80;;;17.40;93.70;;;;;;4958248;29;20452;-66
2022/09/20 09:11:26;;;;;;;7.70;2.20;;;17.20;94.40;;;;;;4958363;29;20480;-66
2022/09/20 09:13:56;;;;;;;6.67;1.70;;;16.80;94.60;;;;;;4958155;29;20865;-65
2022/09/20 09:16:25;;;;;;;5.67;1.87;;;16.50;94.80;;;;;;4957841;29;20468;-65
2022/09/20 09:18:52;;;;;;;9.27;2.50;;;16.10;95.90;;;;;;4958203;29;20817;-66
2022/09/20 09:21:21;;;;;;;7.70;2.03;;;15.90;97.10;;;;;;4958113;29;20484;-66
2022/09/20 09:23:53;;;;;;;3.50;2.20;;;15.90;98.60;;;;;;4958069;29;20451;-66
2022/09/20 09:26:21;;;;;;;5.43;2.27;;;15.80;99.00;;;;;;4958129;29;20495;-66
2022/09/20 09:29:15;;;;;;;4.00;1.50;;;15.80;99.90;;;;;;4958139;29;20463;-67
2022/09/20 09:31:44;;;;;;;3.87;1.83;;;15.70;98.10;;;;;;4957891;29;20475;-67
2022/09/20 09:34:24;;;;;;;5.87;2.00;;;15.60;98.00;;;;;;4957658;29;20939;-66
2022/09/20 09:36:51;;;;;;;3.13;2.10;;;15.50;97.80;;;;;;4957877;29;20550;-66
2022/09/20 09:39:25;;;;;;;4.17;2.07;;;15.50;98.20;;;;;;4957711;29;20451;-67
2022/09/20 09:41:52;;;;;;;7.23;1.83;;;15.50;98.60;;;;;;4957629;29;20475;-67
2022/09/20 09:44:23;;;;;;;5.83;2.50;;;16.00;99.40;;;;;;4957360;29;20547;-69
2022/09/20 09:46:52;;;;;;;7.03;1.90;;;16.90;98.60;;;;;;4957708;29;20444;-66
2022/09/20 09:49:21;;;;;;;12.80;2.77;;;17.80;96.30;;;;;;4957582;29;20534;-67
2022/09/20 09:52:06;;;;;;;4.67;1.80;;;18.90;93.00;;;;;;4957335;29;20538;-67
2022/09/20 09:54:35;;;;;;;7.43;2.20;;;20.10;90.80;;;;;;4957471;29;20444;-66
2022/09/20 09:57:16;;;;;;;8.17;1.70;;;20.60;88.10;;;;;;4957297;29;20563;-67
2022/09/20 10:00:00;;;;;;;3.90;1.50;;;21.40;87.90;;;;;;4956923;29;20479;-67
2022/09/20 10:02:51;;;;;;;5.00;1.60;;;22.70;86.30;;;;;;4956863;29;20652;-67
2022/09/20 10:05:24;;;;;;;5.70;2.30;;;23.80;80.40;;;;;;4957191;29;20432;-67
2022/09/20 10:08:03;;;;;;;5.67;1.47;;;24.00;74.70;;;;;;4957152;29;20852;-67
2022/09/20 10:10:38;;;;;;;7.17;1.93;;;23.70;75.20;;;;;;4957035;29;20444;-66
2022/09/20 10:13:18;;;;;;;3.53;1.67;;;22.70;72.60;;;;;;4956730;29;20857;-67
2022/09/20 10:15:53;;;;;;;2.93;1.60;;;21.60;74.80;;;;;;4956957;29;20468;-66
2022/09/20 10:18:34;;;;;;;6.63;1.80;;;20.30;77.80;;;;;;4956439;28;20439;-66
2022/09/20 10:21:12;;;;;;;5.57;1.67;;;19.50;81.70;;;;;;4956923;29;20497;-67
2022/09/20 10:23:55;;;;;;;2.63;1.67;;;18.90;85.30;;;;;;4957083;29;20531;-66
2022/09/20 10:26:38;;;;;;;3.83;1.83;;;18.10;88.30;;;;;;4956859;29;20483;-67
2022/09/20 10:29:16;;;;;;;5.47;1.50;;;17.70;87.60;;;;;;4956736;29;20443;-66
2022/09/20 10:31:56;;;;;;;6.57;2.23;;;17.30;91.30;;;;;;4956666;29;20538;-66
2022/09/20 10:34:47;;;;;;;6.37;1.97;;;17.30;92.10;;;;;;4956949;29;20451;-66
2022/09/20 10:37:21;;;;;;;5.30;1.50;;;17.20;92.80;;;;;;4956491;29;20971;-66
2022/09/20 10:39:56;;;;;;;3.93;2.00;;;17.80;94.90;;;;;;4956426;29;20439;-66
2022/09/20 10:45:20;;;;;;;6.90;1.63;;;20.60;90.50;;;;;;4956473;29;20453;-66
2022/09/20 10:47:57;;;;;;;4.43;1.67;;;21.40;83.20;;;;;;4956543;29;20477;-66
2022/09/20 10:50:32;;;;;;;5.50;1.83;;;21.50;78.10;;;;;;4956237;29;20443;-66
2022/09/20 10:53:10;;;;;;;6.50;2.43;;;20.90;78.70;;;;;;4956563;29;20439;-67
2022/09/20 10:55:44;;;;;;;4.73;1.50;;;20.40;78.20;;;;;;4956356;29;20468;-68
2022/09/20 10:58:38;;;;;;;5.33;1.57;;;19.90;80.20;;;;;;4956732;29;20440;-67
2022/09/20 11:01:15;;;;;;;5.63;1.47;;;19.40;81.70;;;;;;4956200;29;20480;-67
2022/09/20 11:03:59;;;;;;;5.87;1.80;;;18.80;83.70;;;;;;4955942;29;20868;-67
2022/09/20 11:06:36;;;;;;;2.53;1.40;;;18.40;87.80;;;;;;4956291;29;20436;-65
2022/09/20 11:09:05;;;;;;;5.17;1.67;;;18.10;90.20;;;;;;4956003;29;20443;-67
2022/09/20 11:11:36;;;;;;;4.07;1.80;;;17.90;91.10;;;;;;4956918;29;20979;-67
2022/09/20 11:14:06;;;;;;;3.93;2.13;;;17.90;91.80;;;;;;4958708;29;20440;-67
2022/09/20 11:16:40;;;;;;;5.33;1.80;;;17.90;91.70;;;;;;4955946;29;20483;-66
2022/09/20 11:19:17;;;;;;;4.53;1.73;;;18.00;91.70;;;;;;4956274;29;20479;-67
2022/09/20 11:21:49;;;;;;;5.23;2.00;;;18.10;91.40;;;;;;4956894;29;20482;-65
2022/09/20 11:24:27;;;;;;;3.13;1.90;;;18.00;91.30;;;;;;4956698;29;20534;-66
2022/09/20 11:26:58;;;;;;;4.50;2.10;;;18.10;91.20;;;;;;4956936;29;20435;-67
2022/09/20 11:29:32;;;;;;;4.00;1.67;;;18.00;90.20;;;;;;4959363;28;20444;-65
2022/09/20 11:32:03;;;;;;;4.80;2.10;;;18.10;91.00;;;;;;4960493;29;20603;-65
2022/09/20 11:34:37;;;;;;;4.67;1.83;;;18.10;90.40;;;;;;4960079;29;20440;-66
2022/09/20 11:37:03;;;;;;;6.03;1.90;;;18.10;91.60;;;;;;4959784;29;20467;-66
2022/09/20 11:39:38;;;;;;;4.80;1.63;;;18.30;92.00;;;;;;4960515;29;20893;-66
2022/09/20 11:42:13;;;;;;;6.43;2.20;;;18.30;92.10;;;;;;4959808;29;20530;-65
2022/09/20 11:44:41;;;;;;;2.40;1.50;;;18.30;92.00;;;;;;4959681;29;20906;-64
2022/09/20 11:47:17;;;;;;;3.93;1.47;;;18.20;91.60;;;;;;4959476;29;20455;-64
2022/09/20 11:50:07;;;;;;;4.37;1.80;;;18.00;90.70;;;;;;4959690;29;20907;-66
2022/09/20 11:52:51;;;;;;;3.27;1.90;;;17.70;91.80;;;;;;4960875;29;20511;-65
2022/09/20 11:55:33;;;;;;;4.20;1.70;;;17.50;92.00;;;;;;4959845;29;20443;-66
2022/09/20 11:58:06;;;;;;;3.00;2.33;;;17.30;92.50;;;;;;4959444;29;20436;-65
2022/09/20 12:00:36;;;;;;;4.80;1.57;;;17.20;93.00;;;;;;4958785;29;20450;-65
2022/09/20 12:03:06;;;;;;;6.60;2.20;;;17.40;95.60;;;;;;4959449;29;20476;-65
2022/09/20 12:05:36;;;;;;;4.30;2.03;;;17.60;93.00;;;;;;4959371;29;20455;-65
2022/09/20 12:08:07;;;;;;;4.03;1.60;;;18.10;94.70;;;;;;4959173;29;20447;-65
2022/09/20 12:10:38;;;;;;;2.57;1.30;;;18.50;93.60;;;;;;4958959;29;20546;-66
2022/09/20 12:13:07;;;;;;;4.00;1.80;;;18.80;92.40;;;;;;4958819;29;20911;-64
2022/09/20 12:15:37;;;;;;;3.97;1.53;;;18.70;90.40;;;;;;4959073;29;20867;-66
2022/09/20 12:18:31;;;;;;;4.13;1.50;;;18.70;90.30;;;;;;4959052;29;20436;-65
2022/09/20 12:21:13;;;;;;;2.73;1.60;;;18.70;93.80;;;;;;4959001;29;20502;-66
2022/09/20 12:24:18;;;;;;;3.07;2.10;;;18.70;92.90;;;;;;4959315;29;20436;-66
2022/09/20 12:26:56;;;;;;;5.73;2.30;;;19.00;93.30;;;;;;4958554;29;20455;-67
2022/09/20 12:30:14;;;;;;;3.70;1.70;;;19.20;89.40;;;;;;4958731;29;20467;-66
2022/09/20 12:33:06;;;;;;;6.90;1.80;;;19.60;90.20;;;;;;4958939;29;20487;-67
2022/09/20 12:36:14;;;;;;;4.63;2.00;;;20.10;86.20;;;;;;4958974;29;20444;-66
2022/09/20 12:39:04;;;;;;;2.87;1.50;;;20.50;84.70;;;;;;4958822;29;20436;-66
2022/09/20 12:41:46;;;;;;;4.17;1.60;;;20.50;78.90;;;;;;4957969;28;20476;-63
2022/09/20 12:44:30;;;;;;;2.93;1.70;;;20.50;80.30;;;;;;4958646;29;20439;-66
2022/09/20 12:47:00;;;;;;;10.10;1.80;;;20.30;80.10;;;;;;4957009;29;20515;-67
2022/09/20 12:55:49;;;;;;;5.70;2.60;;;20.80;82.70;;;;;;4958436;29;20927;-65
2022/09/20 12:58:36;;;;;;;3.17;2.00;;;21.10;85.50;;;;;;4958863;29;20440;-69
2022/09/20 13:01:32;;;;;;;5.20;2.10;;;20.90;86.60;;;;;;4958812;29;20509;-65
2022/09/20 13:04:32;;;;;;;5.57;2.27;;;20.40;84.70;;;;;;4914225;29;20506;-65
2022/09/20 13:07:45;;;;;;;3.40;1.80;;;19.70;85.00;;;;;;4941876;29;20519;-66
2022/09/20 13:10:28;;;;;;;5.37;2.03;;;19.20;87.70;;;;;;4957695;29;20933;-62
2022/09/20 13:13:04;;;;;;;5.97;2.20;;;18.80;89.70;;;;;;4958429;29;20460;-66
2022/09/20 13:15:33;;;;;;;2.63;1.70;;;18.50;88.10;;;;;;4958463;29;20436;-66
2022/09/20 13:18:01;;;;;;;3.70;2.00;;;18.30;89.60;;;;;;4959540;29;20570;-66
2022/09/20 13:20:33;;;;;;;2.10;1.63;;;18.20;91.10;;;;;;4959274;29;20467;-63
2022/09/20 13:23:01;;;;;;;4.70;2.10;;;18.00;90.70;;;;;;4959061;29;20807;-64
2022/09/20 13:25:28;;;;;;;3.40;2.47;;;17.90;92.10;;;;;;4959588;29;20460;-64
2022/09/20 13:28:05;;;;;;;3.43;1.70;;;17.80;92.50;;;;;;4959342;29;20455;-64
2022/09/20 13:30:32;;;;;;;2.93;1.23;;;17.70;94.00;;;;;;4960266;29;20443;-64
2022/09/20 13:33:14;;;;;;;4.43;1.83;;;17.70;93.50;;;;;;4964220;29;20989;-63
2022/09/20 13:35:43;;;;;;;5.07;1.73;;;17.70;94.10;;;;;;4966446;29;20436;-64
2022/09/20 13:38:10;;;;;;;5.87;1.27;;;17.80;91.50;;;;;;4963738;29;20550;-63
2022/09/20 13:40:38;;;;;;;3.20;1.40;;;17.60;93.10;;;;;;4957914;29;20479;-64
2022/09/20 13:43:24;;;;;;;4.67;3.07;;;17.60;90.80;;;;;;4957624;29;20458;-64
2022/09/20 13:45:53;;;;;;;4.50;1.40;;;17.60;90.80;;;;;;4957737;29;20982;-65
2022/09/20 13:48:23;;;;;;;4.33;1.70;;;17.40;91.00;;;;;;4957660;29;20456;-66
2022/09/20 13:50:50;;;;;;;5.00;2.30;;;17.20;91.60;;;;;;4957374;28;20479;-65
2022/09/20 13:53:18;;;;;;;2.83;1.57;;;17.20;92.00;;;;;;4956989;29;20817;-63
2022/09/20 13:55:47;;;;;;;6.63;2.13;;;17.00;92.00;;;;;;4958003;29;20515;-65
2022/09/20 13:58:21;;;;;;;5.40;2.03;;;16.90;92.30;;;;;;4957914;29;20483;-67
2022/09/20 14:00:50;;;;;;;2.87;1.80;;;16.80;94.50;;;;;;4957776;29;20490;-65
2022/09/20 14:03:19;;;;;;;3.53;2.30;;;16.70;93.30;;;;;;4957247;29;20506;-66
2022/09/20 14:05:47;;;;;;;6.07;2.70;;;16.60;94.20;;;;;;4957527;29;20452;-66
2022/09/20 14:08:21;;;;;;;4.90;3.30;;;16.40;95.90;;;;;;4957140;29;20447;-65
2022/09/20 14:10:47;;;;;;;5.27;2.47;;;16.20;97.20;;;;;;4957195;29;20479;-65
2022/09/20 14:13:17;;;;;;;4.57;2.17;;;16.00;97.80;;;;;;4957032;29;20456;-65
2022/09/20 14:15:46;;;;;;;3.93;1.90;;;15.70;97.50;;;;;;4956988;29;20455;-65
2022/09/20 14:18:16;;;;;;;5.30;2.17;;;15.60;98.70;;;;;;4956765;29;20554;-65
2022/09/20 14:20:43;;;;;;;2.90;2.10;;;15.50;99.80;;;;;;4956922;29;20845;-63
2022/09/20 14:23:21;;;;;;;7.00;2.47;;;15.40;99.90;;;;;;4956894;29;20451;-63
2022/09/20 14:26:06;;;;;;;4.87;1.80;;;15.30;99.90;;;;;;4956732;29;20451;-63
2022/09/20 14:28:33;;;;;;;7.20;2.40;;;15.40;99.90;;;;;;4957229;29;20463;-66
2022/09/20 14:31:09;;;;;;;5.47;1.93;;;15.50;99.90;;;;;;4956405;29;21041;-65
2022/09/20 14:33:40;;;;;;;2.43;1.80;;;15.50;99.30;;;;;;4956648;29;20439;-65
2022/09/20 14:36:14;;;;;;;2.43;2.10;;;15.50;99.70;;;;;;4956291;29;20974;-66
2022/09/20 14:38:43;;;;;;;4.40;2.10;;;15.60;99.00;;;;;;4956247;29;20495;-64
2022/09/20 14:41:10;;;;;;;2.53;2.30;;;15.50;98.00;;;;;;4956317;29;20531;-63
2022/09/20 14:43:37;;;;;;;3.63;2.03;;;15.60;98.60;;;;;;4956220;29;20496;-63
2022/09/20 14:46:11;;;;;;;4.47;2.00;;;15.70;97.80;;;;;;4956181;29;20485;-62
2022/09/20 14:48:40;;;;;;;4.37;2.00;;;15.70;98.00;;;;;;4956260;29;20444;-62
2022/09/20 14:51:27;;;;;;;3.60;2.33;;;15.90;98.00;;;;;;4956889;29;20508;-63
2022/09/20 14:54:24;;;;;;;4.03;1.93;;;16.20;96.10;;;;;;4950129;29;20467;-62
2022/09/20 14:56:52;;;;;;;4.07;1.87;;;16.40;95.30;;;;;;4957490;29;20582;-65
2022/09/20 14:59:25;;;;;;;3.00;2.07;;;16.60;95.20;;;;;;4957762;29;20543;-66
2022/09/20 15:02:01;;;;;;;1.57;1.47;;;16.60;94.00;;;;;;4955988;29;20483;-66
2022/09/20 15:04:30;;;;;;;4.07;2.13;;;16.60;94.10;;;;;;4956218;29;20468;-65
2022/09/20 15:07:01;;;;;;;3.60;1.90;;;16.40;93.90;;;;;;4956238;29;20515;-65
2022/09/20 15:09:28;;;;;;;5.50;2.33;;;16.50;93.80;;;;;;4956433;29;20443;-65
2022/09/20 15:12:03;;;;;;;3.00;2.20;;;16.40;94.20;;;;;;4957289;29;20571;-66
2022/09/20 15:14:31;;;;;;;2.80;2.23;;;16.30;94.10;;;;;;4956774;29;20430;-65
2022/09/20 15:17:00;;;;;;;2.37;2.17;;;16.30;94.20;;;;;;4955758;29;20511;-65
2022/09/20 15:19:27;;;;;;;3.17;1.90;;;16.40;94.50;;;;;;4956126;29;20531;-65
2022/09/20 15:21:53;;;;;;;5.17;2.03;;;16.40;93.50;;;;;;4956400;29;20886;-66
2022/09/20 15:24:20;;;;;;;4.70;2.10;;;16.40;93.90;;;;;;4956342;29;20455;-66
2022/09/20 15:26:47;;;;;;;5.40;2.27;;;16.40;93.20;;;;;;4955901;29;20468;-65
2022/09/20 15:29:16;;;;;;;3.17;2.10;;;16.40;92.80;;;;;;4956049;29;20463;-65
2022/09/20 15:31:42;;;;;;;3.60;2.10;;;16.40;93.40;;;;;;4956647;29;20518;-64
2022/09/20 15:34:11;;;;;;;1.90;1.80;;;16.40;92.10;;;;;;4956670;29;20451;-64
2022/09/20 15:36:39;;;;;;;3.20;1.90;;;16.40;93.30;;;;;;4956783;29;20543;-65
2022/09/20 15:39:05;;;;;;;4.00;3.70;;;16.40;92.40;;;;;;4956373;29;20452;-65
2022/09/20 15:41:32;;;;;;;1.80;1.70;;;16.40;93.20;;;;;;4956594;29;20472;-65
2022/09/20 15:44:00;;;;;;;2.60;1.70;;;16.40;91.40;;;;;;4957867;29;20585;-64
2022/09/20 15:46:27;;;;;;;2.10;1.90;;;16.30;90.80;;;;;;4956829;29;20482;-64
2022/09/20 15:48:54;;;;;;;1.90;1.70;;;16.20;90.60;;;;;;4956524;29;20792;-64
2022/09/20 15:51:22;;;;;;;1.93;1.57;;;16.10;91.20;;;;;;4955645;29;20482;-64
2022/09/20 15:53:55;;;;;;;4.40;2.03;;;16.00;91.10;;;;;;4956201;29;20522;-65
2022/09/20 15:56:23;;;;;;;2.10;1.60;;;15.90;91.70;;;;;;4956534;29;20443;-64
2022/09/20 15:58:57;;;;;;;2.07;1.93;;;15.70;92.10;;;;;;4957249;29;20460;-65
2022/09/20 16:01:25;;;;;;;3.40;1.50;;;15.60;92.90;;;;;;4958174;29;20487;-65
2022/09/20 16:03:52;;;;;;;1.70;1.60;;;15.50;93.10;;;;;;4958923;29;20945;-64
2022/09/20 16:06:19;;;;;;;1.30;1.27;;;15.40;93.40;;;;;;4958399;29;20863;-66
2022/09/20 16:08:46;;;;;;;2.67;1.80;;;15.40;93.00;;;;;;4958225;29;20455;-64
2022/09/20 16:11:15;;;;;;;4.27;1.73;;;15.30;93.80;;;;;;4959453;29;20479;-64
2022/09/20 16:13:41;;;;;;;1.60;1.50;;;15.20;94.90;;;;;;4958275;29;20459;-65
2022/09/20 16:16:11;;;;;;;1.60;1.50;;;15.20;95.10;;;;;;4961450;28;20510;-65
2022/09/20 16:21:22;;;;;;;2.30;2.00;;;15.20;96.10;;;;;;4962213;29;20893;-63
2022/09/20 16:23:52;;;;;;;2.30;1.80;;;15.10;95.20;;;;;;4962432;29;20440;-63
2022/09/20 16:26:20;;;;;;;2.77;2.20;;;15.00;95.60;;;;;;4961900;29;20807;-62
2022/09/20 16:28:48;;;;;;;5.20;1.87;;;15.00;96.40;;;;;;4961180;29;20463;-62
2022/09/20 16:31:38;;;;;;;1.80;1.67;;;14.90;97.00;;;;;;4959959;29;20482;-62
2022/09/20 16:34:08;;;;;;;3.40;2.10;;;14.90;97.80;;;;;;4961087;29;20507;-63
2022/09/20 16:36:35;;;;;;;2.97;2.20;;;14.80;98.10;;;;;;4961533;29;20444;-62
2022/09/20 16:39:03;;;;;;;3.40;2.20;;;14.70;98.50;;;;;;4960271;29;20468;-62
2022/09/20 16:41:31;;;;;;;3.47;1.70;;;14.70;98.90;;;;;;4959823;29;20487;-62
2022/09/20 16:43:58;;;;;;;2.17;1.97;;;14.70;99.20;;;;;;4960834;29;20864;-62
2022/09/20 16:46:26;;;;;;;2.47;2.27;;;14.60;99.20;;;;;;4961538;29;20460;-62
2022/09/20 16:48:54;;;;;;;3.80;2.13;;;14.60;99.90;;;;;;4960391;29;20863;-63
2022/09/20 16:51:23;;;;;;;2.03;1.80;;;14.60;99.90;;;;;;4959880;29;20881;-63
2022/09/20 16:53:52;;;;;;;2.10;2.00;;;14.50;99.90;;;;;;4959548;29;20467;-63
2022/09/20 16:56:21;;;;;;;2.40;2.20;;;14.50;99.90;;;;;;4961977;29;20460;-62
2022/09/20 16:58:49;;;;;;;2.50;2.30;;;14.50;99.90;;;;;;4959443;29;20479;-63
2022/09/20 17:01:16;;;;;;;3.30;2.23;;;14.50;99.90;;;;;;4958818;29;20515;-62
2022/09/20 17:03:43;;;;;;;3.00;2.13;;;14.50;99.90;;;;;;4959061;29;20459;-62
2022/09/20 17:06:11;;;;;;;5.50;2.20;;;14.50;99.90;;;;;;4960642;29;20459;-66
2022/09/20 17:08:38;;;;;;;2.20;2.00;;;14.50;99.90;;;;;;4960064;29;20460;-64
2022/09/20 17:11:08;;;;;;;2.50;1.80;;;14.50;99.90;;;;;;4958669;29;20562;-64
2022/09/20 17:13:38;;;;;;;6.20;2.23;;;14.50;99.90;;;;;;4959990;29;20884;-65
2022/09/20 17:16:06;;;;;;;2.73;2.40;;;14.50;99.90;;;;;;4959248;29;20543;-65
2022/09/20 17:18:33;;;;;;;3.83;2.10;;;14.40;99.90;;;;;;4958885;29;20839;-65
2022/09/20 17:21:04;;;;;;;4.63;1.87;;;14.40;99.90;;;;;;4958422;29;20485;-66
2022/09/20 17:23:32;;;;;;;3.60;2.53;;;14.40;99.90;;;;;;4958996;29;20444;-67
2022/09/20 17:26:05;;;;;;;2.50;2.30;;;14.40;99.90;;;;;;4958300;28;20543;-65
2022/09/20 17:28:36;;;;;;;3.33;2.17;;;14.30;99.90;;;;;;4960430;29;20511;-66
2022/09/20 17:31:03;;;;;;;3.77;2.20;;;14.30;99.90;;;;;;4959661;29;20479;-66
2022/09/20 17:33:31;;;;;;;3.47;2.37;;;14.20;99.90;;;;;;4959472;29;20460;-64
2022/09/20 17:35:59;;;;;;;4.00;2.20;;;14.20;99.90;;;;;;4959429;29;20456;-65
2022/09/20 17:38:26;;;;;;;5.60;2.33;;;14.10;99.90;;;;;;4959469;29;20531;-66
2022/09/20 17:41:00;;;;;;;3.20;2.90;;;14.10;99.90;;;;;;4958656;29;20480;-63
2022/09/20 17:43:28;;;;;;;2.70;2.50;;;14.00;99.90;;;;;;4957930;29;20531;-65